sensor_id;sensor_type;location;lat;lon;timestamp;P1;durP1;ratioP1;P2;durP2;ratioP2
60086;SDS011;45960;53.630;55.972;2023-04-25T00:00:47;49.95;;;23.25;;
60086;SDS011;45960;53.630;55.972;2023-04-25T00:01:48;44.47;;;22.95;;
60086;SDS011;45960;53.630;55.972;2023-04-25T00:02:49;45.25;;;20.88;;
60086;SDS011;45960;53.630;55.972;2023-04-25T00:03:50;43.53;;;21.45;;
60086;SDS011;45960;53.630;55.972;2023-04-25T00:04:51;41.42;;;20.67;;
60086;SDS011;45960;53.630;55.972;2023-04-25T00:05:52;37.42;;;18.80;;
60086;SDS011;45960;53.630;55.972;2023-04-25T00:06:53;34.42;;;16.63;;
60086;SDS011;45960;53.630;55.972;2023-04-25T00:07:55;34.22;;;17.70;;
60086;SDS011;45960;53.630;55.972;2023-04-25T00:08:56;32.33;;;17.52;;
60086;SDS011;45960;53.630;55.972;2023-04-25T00:09:58;37.35;;;20.15;;
60086;SDS011;45960;53.630;55.972;2023-04-25T00:11:00;35.58;;;19.00;;
60086;SDS011;45960;53.630;55.972;2023-04-25T00:12:01;32.33;;;18.50;;
60086;SDS011;45960;53.630;55.972;2023-04-25T00:13:02;35.67;;;16.33;;
60086;SDS011;45960;53.630;55.972;2023-04-25T00:14:04;26.92;;;15.10;;
60086;SDS011;45960;53.630;55.972;2023-04-25T00:15:05;33.95;;;17.52;;
60086;SDS011;45960;53.630;55.972;2023-04-25T00:16:07;27.67;;;14.68;;
60086;SDS011;45960;53.630;55.972;2023-04-25T00:17:08;29.85;;;13.90;;
60086;SDS011;45960;53.630;55.972;2023-04-25T00:18:09;34.38;;;15.07;;
60086;SDS011;45960;53.630;55.972;2023-04-25T00:19:11;30.33;;;14.90;;
60086;SDS011;45960;53.630;55.972;2023-04-25T00:20:14;28.90;;;15.20;;
60086;SDS011;45960;53.630;55.972;2023-04-25T00:21:15;35.80;;;15.00;;
60086;SDS011;45960;53.630;55.972;2023-04-25T00:22:18;29.30;;;13.73;;
60086;SDS011;45960;53.630;55.972;2023-04-25T00:23:19;26.10;;;13.20;;
60086;SDS011;45960;53.630;55.972;2023-04-25T00:24:20;29.52;;;14.20;;
60086;SDS011;45960;53.630;55.972;2023-04-25T00:25:21;27.02;;;13.77;;
60086;SDS011;45960;53.630;55.972;2023-04-25T00:26:22;26.98;;;13.77;;
60086;SDS011;45960;53.630;55.972;2023-04-25T00:27:24;28.85;;;13.88;;
60086;SDS011;45960;53.630;55.972;2023-04-25T00:28:25;29.15;;;13.32;;
60086;SDS011;45960;53.630;55.972;2023-04-25T00:29:26;26.13;;;12.23;;
60086;SDS011;45960;53.630;55.972;2023-04-25T00:30:27;33.28;;;13.77;;
60086;SDS011;45960;53.630;55.972;2023-04-25T00:31:28;26.73;;;12.73;;
60086;SDS011;45960;53.630;55.972;2023-04-25T00:32:29;25.80;;;12.65;;
60086;SDS011;45960;53.630;55.972;2023-04-25T00:33:31;27.67;;;11.73;;
60086;SDS011;45960;53.630;55.972;2023-04-25T00:34:32;25.75;;;12.18;;
60086;SDS011;45960;53.630;55.972;2023-04-25T00:35:33;27.90;;;10.98;;
60086;SDS011;45960;53.630;55.972;2023-04-25T00:36:35;34.33;;;11.57;;
60086;SDS011;45960;53.630;55.972;2023-04-25T00:37:36;26.00;;;11.07;;
60086;SDS011;45960;53.630;55.972;2023-04-25T00:38:38;25.23;;;12.32;;
60086;SDS011;45960;53.630;55.972;2023-04-25T00:39:39;26.52;;;11.40;;
60086;SDS011;45960;53.630;55.972;2023-04-25T00:40:40;28.50;;;10.77;;
60086;SDS011;45960;53.630;55.972;2023-04-25T00:41:44;26.55;;;11.73;;
60086;SDS011;45960;53.630;55.972;2023-04-25T00:42:46;28.98;;;12.48;;
60086;SDS011;45960;53.630;55.972;2023-04-25T00:43:47;34.08;;;13.45;;
60086;SDS011;45960;53.630;55.972;2023-04-25T00:44:51;39.88;;;16.50;;
60086;SDS011;45960;53.630;55.972;2023-04-25T00:45:53;39.67;;;16.70;;
60086;SDS011;45960;53.630;55.972;2023-04-25T00:46:54;40.50;;;17.35;;
60086;SDS011;45960;53.630;55.972;2023-04-25T00:47:56;41.35;;;17.23;;
60086;SDS011;45960;53.630;55.972;2023-04-25T00:48:57;49.75;;;19.25;;
60086;SDS011;45960;53.630;55.972;2023-04-25T00:49:58;47.35;;;17.85;;
60086;SDS011;45960;53.630;55.972;2023-04-25T00:50:59;56.70;;;21.15;;
60086;SDS011;45960;53.630;55.972;2023-04-25T00:52:01;54.72;;;20.08;;
60086;SDS011;45960;53.630;55.972;2023-04-25T00:53:02;50.15;;;19.27;;
60086;SDS011;45960;53.630;55.972;2023-04-25T00:54:04;47.30;;;19.13;;
60086;SDS011;45960;53.630;55.972;2023-04-25T00:55:05;43.47;;;15.75;;
60086;SDS011;45960;53.630;55.972;2023-04-25T00:56:06;49.58;;;17.95;;
60086;SDS011;45960;53.630;55.972;2023-04-25T00:57:07;54.92;;;18.10;;
60086;SDS011;45960;53.630;55.972;2023-04-25T00:58:08;46.22;;;15.45;;
60086;SDS011;45960;53.630;55.972;2023-04-25T00:59:09;36.13;;;13.57;;
60086;SDS011;45960;53.630;55.972;2023-04-25T01:00:11;42.38;;;12.65;;
60086;SDS011;45960;53.630;55.972;2023-04-25T01:01:14;31.23;;;10.98;;
60086;SDS011;45960;53.630;55.972;2023-04-25T01:02:15;35.55;;;12.07;;
60086;SDS011;45960;53.630;55.972;2023-04-25T01:03:17;37.90;;;13.07;;
60086;SDS011;45960;53.630;55.972;2023-04-25T01:04:20;57.30;;;13.20;;
60086;SDS011;45960;53.630;55.972;2023-04-25T01:05:21;36.45;;;11.68;;
60086;SDS011;45960;53.630;55.972;2023-04-25T01:06:23;31.67;;;11.00;;
60086;SDS011;45960;53.630;55.972;2023-04-25T01:07:24;38.42;;;12.30;;
60086;SDS011;45960;53.630;55.972;2023-04-25T01:08:26;34.70;;;11.40;;
60086;SDS011;45960;53.630;55.972;2023-04-25T01:09:27;38.72;;;11.48;;
60086;SDS011;45960;53.630;55.972;2023-04-25T01:10:28;32.90;;;10.95;;
60086;SDS011;45960;53.630;55.972;2023-04-25T01:11:29;45.65;;;10.48;;
60086;SDS011;45960;53.630;55.972;2023-04-25T01:12:30;32.17;;;11.18;;
60086;SDS011;45960;53.630;55.972;2023-04-25T01:13:32;39.00;;;10.20;;
60086;SDS011;45960;53.630;55.972;2023-04-25T01:14:34;35.05;;;10.63;;
60086;SDS011;45960;53.630;55.972;2023-04-25T01:15:35;37.72;;;12.05;;
60086;SDS011;45960;53.630;55.972;2023-04-25T01:16:36;32.30;;;11.10;;
60086;SDS011;45960;53.630;55.972;2023-04-25T01:17:38;40.72;;;12.13;;
60086;SDS011;45960;53.630;55.972;2023-04-25T01:18:41;26.83;;;9.80;;
60086;SDS011;45960;53.630;55.972;2023-04-25T01:19:43;32.10;;;9.95;;
60086;SDS011;45960;53.630;55.972;2023-04-25T01:20:45;38.47;;;11.55;;
60086;SDS011;45960;53.630;55.972;2023-04-25T01:21:47;55.92;;;14.57;;
60086;SDS011;45960;53.630;55.972;2023-04-25T01:22:50;33.95;;;10.05;;
60086;SDS011;45960;53.630;55.972;2023-04-25T01:23:51;34.22;;;9.88;;
60086;SDS011;45960;53.630;55.972;2023-04-25T01:24:54;32.00;;;9.60;;
60086;SDS011;45960;53.630;55.972;2023-04-25T01:25:56;28.58;;;9.32;;
60086;SDS011;45960;53.630;55.972;2023-04-25T01:26:57;24.65;;;8.60;;
60086;SDS011;45960;53.630;55.972;2023-04-25T01:28:01;27.65;;;8.15;;
60086;SDS011;45960;53.630;55.972;2023-04-25T01:29:06;29.98;;;7.97;;
60086;SDS011;45960;53.630;55.972;2023-04-25T01:30:09;33.63;;;9.00;;
60086;SDS011;45960;53.630;55.972;2023-04-25T01:31:11;27.40;;;7.90;;
60086;SDS011;45960;53.630;55.972;2023-04-25T01:32:13;31.58;;;8.27;;
60086;SDS011;45960;53.630;55.972;2023-04-25T01:33:15;25.58;;;8.10;;
60086;SDS011;45960;53.630;55.972;2023-04-25T01:34:16;27.55;;;7.65;;
60086;SDS011;45960;53.630;55.972;2023-04-25T01:35:17;18.65;;;6.70;;
60086;SDS011;45960;53.630;55.972;2023-04-25T01:36:19;25.00;;;8.02;;
60086;SDS011;45960;53.630;55.972;2023-04-25T01:37:22;21.77;;;7.00;;
60086;SDS011;45960;53.630;55.972;2023-04-25T01:38:23;27.10;;;6.70;;
60086;SDS011;45960;53.630;55.972;2023-04-25T01:39:24;26.05;;;8.10;;
60086;SDS011;45960;53.630;55.972;2023-04-25T01:40:25;25.85;;;6.28;;
60086;SDS011;45960;53.630;55.972;2023-04-25T01:41:27;23.65;;;7.20;;
60086;SDS011;45960;53.630;55.972;2023-04-25T01:42:29;39.20;;;8.07;;
60086;SDS011;45960;53.630;55.972;2023-04-25T01:43:30;24.33;;;7.18;;
60086;SDS011;45960;53.630;55.972;2023-04-25T01:44:31;24.70;;;7.88;;
60086;SDS011;45960;53.630;55.972;2023-04-25T01:45:32;29.60;;;8.10;;
60086;SDS011;45960;53.630;55.972;2023-04-25T01:46:34;21.80;;;7.70;;
60086;SDS011;45960;53.630;55.972;2023-04-25T01:47:35;28.42;;;7.70;;
60086;SDS011;45960;53.630;55.972;2023-04-25T01:48:36;30.15;;;6.60;;
60086;SDS011;45960;53.630;55.972;2023-04-25T01:49:38;30.83;;;7.45;;
60086;SDS011;45960;53.630;55.972;2023-04-25T01:50:39;35.50;;;7.88;;
60086;SDS011;45960;53.630;55.972;2023-04-25T01:51:41;29.45;;;7.72;;
60086;SDS011;45960;53.630;55.972;2023-04-25T01:52:42;22.55;;;7.60;;
60086;SDS011;45960;53.630;55.972;2023-04-25T01:53:43;35.97;;;9.23;;
60086;SDS011;45960;53.630;55.972;2023-04-25T01:54:45;26.60;;;7.85;;
60086;SDS011;45960;53.630;55.972;2023-04-25T01:55:48;36.35;;;8.48;;
60086;SDS011;45960;53.630;55.972;2023-04-25T01:56:52;23.20;;;8.73;;
60086;SDS011;45960;53.630;55.972;2023-04-25T01:57:55;29.63;;;7.30;;
60086;SDS011;45960;53.630;55.972;2023-04-25T01:59:05;31.58;;;8.20;;
60086;SDS011;45960;53.630;55.972;2023-04-25T02:00:25;34.58;;;9.45;;
60086;SDS011;45960;53.630;55.972;2023-04-25T02:01:26;25.08;;;9.07;;
60086;SDS011;45960;53.630;55.972;2023-04-25T02:02:45;43.25;;;8.90;;
60086;SDS011;45960;53.630;55.972;2023-04-25T02:03:55;28.15;;;7.50;;
60086;SDS011;45960;53.630;55.972;2023-04-25T02:05:05;42.35;;;9.15;;
60086;SDS011;45960;53.630;55.972;2023-04-25T02:06:09;33.28;;;8.80;;
60086;SDS011;45960;53.630;55.972;2023-04-25T02:07:13;33.15;;;8.10;;
60086;SDS011;45960;53.630;55.972;2023-04-25T02:08:22;35.38;;;9.13;;
60086;SDS011;45960;53.630;55.972;2023-04-25T02:09:23;35.25;;;7.38;;
60086;SDS011;45960;53.630;55.972;2023-04-25T02:10:29;29.38;;;7.55;;
60086;SDS011;45960;53.630;55.972;2023-04-25T02:11:52;31.67;;;8.15;;
60086;SDS011;45960;53.630;55.972;2023-04-25T02:13:09;20.60;;;7.32;;
60086;SDS011;45960;53.630;55.972;2023-04-25T02:14:30;49.50;;;10.05;;
60086;SDS011;45960;53.630;55.972;2023-04-25T02:15:50;35.38;;;9.25;;
60086;SDS011;45960;53.630;55.972;2023-04-25T02:16:53;38.10;;;9.57;;
60086;SDS011;45960;53.630;55.972;2023-04-25T02:17:54;32.60;;;8.95;;
60086;SDS011;45960;53.630;55.972;2023-04-25T02:18:55;29.85;;;8.90;;
60086;SDS011;45960;53.630;55.972;2023-04-25T02:19:56;32.58;;;7.80;;
60086;SDS011;45960;53.630;55.972;2023-04-25T02:20:58;39.45;;;8.82;;
60086;SDS011;45960;53.630;55.972;2023-04-25T02:22:00;24.70;;;7.13;;
60086;SDS011;45960;53.630;55.972;2023-04-25T02:23:02;24.25;;;6.82;;
60086;SDS011;45960;53.630;55.972;2023-04-25T02:24:03;27.73;;;7.88;;
60086;SDS011;45960;53.630;55.972;2023-04-25T02:25:05;18.98;;;7.03;;
60086;SDS011;45960;53.630;55.972;2023-04-25T02:26:06;18.77;;;6.30;;
60086;SDS011;45960;53.630;55.972;2023-04-25T02:27:07;17.42;;;7.38;;
60086;SDS011;45960;53.630;55.972;2023-04-25T02:28:09;15.98;;;6.10;;
60086;SDS011;45960;53.630;55.972;2023-04-25T02:29:11;17.30;;;6.72;;
60086;SDS011;45960;53.630;55.972;2023-04-25T02:30:12;18.55;;;6.97;;
60086;SDS011;45960;53.630;55.972;2023-04-25T02:31:13;12.80;;;6.10;;
60086;SDS011;45960;53.630;55.972;2023-04-25T02:32:14;19.20;;;6.38;;
60086;SDS011;45960;53.630;55.972;2023-04-25T02:33:15;23.48;;;6.03;;
60086;SDS011;45960;53.630;55.972;2023-04-25T02:34:17;17.58;;;6.38;;
60086;SDS011;45960;53.630;55.972;2023-04-25T02:35:18;22.50;;;5.60;;
60086;SDS011;45960;53.630;55.972;2023-04-25T02:36:20;21.45;;;6.05;;
60086;SDS011;45960;53.630;55.972;2023-04-25T02:37:23;10.52;;;5.38;;
60086;SDS011;45960;53.630;55.972;2023-04-25T02:38:24;16.85;;;5.95;;
60086;SDS011;45960;53.630;55.972;2023-04-25T02:39:25;15.70;;;5.93;;
60086;SDS011;45960;53.630;55.972;2023-04-25T02:40:27;15.60;;;5.78;;
60086;SDS011;45960;53.630;55.972;2023-04-25T02:41:28;15.80;;;6.10;;
60086;SDS011;45960;53.630;55.972;2023-04-25T02:42:30;24.23;;;7.15;;
60086;SDS011;45960;53.630;55.972;2023-04-25T02:43:31;24.75;;;5.93;;
60086;SDS011;45960;53.630;55.972;2023-04-25T02:44:32;9.60;;;4.80;;
60086;SDS011;45960;53.630;55.972;2023-04-25T02:45:33;19.92;;;5.60;;
60086;SDS011;45960;53.630;55.972;2023-04-25T02:46:35;15.85;;;5.15;;
60086;SDS011;45960;53.630;55.972;2023-04-25T02:47:36;13.85;;;5.18;;
60086;SDS011;45960;53.630;55.972;2023-04-25T02:48:37;14.90;;;6.25;;
60086;SDS011;45960;53.630;55.972;2023-04-25T02:49:38;12.20;;;4.97;;
60086;SDS011;45960;53.630;55.972;2023-04-25T02:50:40;24.30;;;5.43;;
60086;SDS011;45960;53.630;55.972;2023-04-25T02:51:41;39.75;;;6.18;;
60086;SDS011;45960;53.630;55.972;2023-04-25T02:52:42;86.13;;;10.02;;
60086;SDS011;45960;53.630;55.972;2023-04-25T02:53:51;21.02;;;4.85;;
60086;SDS011;45960;53.630;55.972;2023-04-25T02:54:52;15.40;;;4.80;;
60086;SDS011;45960;53.630;55.972;2023-04-25T02:55:53;9.70;;;4.60;;
60086;SDS011;45960;53.630;55.972;2023-04-25T02:56:54;10.43;;;4.28;;
60086;SDS011;45960;53.630;55.972;2023-04-25T02:58:00;12.90;;;4.45;;
60086;SDS011;45960;53.630;55.972;2023-04-25T02:59:22;18.15;;;5.18;;
60086;SDS011;45960;53.630;55.972;2023-04-25T03:00:24;13.63;;;5.15;;
60086;SDS011;45960;53.630;55.972;2023-04-25T03:01:25;15.00;;;4.55;;
60086;SDS011;45960;53.630;55.972;2023-04-25T03:02:26;8.73;;;4.68;;
60086;SDS011;45960;53.630;55.972;2023-04-25T03:03:27;14.50;;;5.07;;
60086;SDS011;45960;53.630;55.972;2023-04-25T03:04:28;17.45;;;4.72;;
60086;SDS011;45960;53.630;55.972;2023-04-25T03:05:29;11.63;;;4.60;;
60086;SDS011;45960;53.630;55.972;2023-04-25T03:06:30;13.23;;;4.90;;
60086;SDS011;45960;53.630;55.972;2023-04-25T03:07:31;10.20;;;4.72;;
60086;SDS011;45960;53.630;55.972;2023-04-25T03:08:32;26.73;;;5.97;;
60086;SDS011;45960;53.630;55.972;2023-04-25T03:09:36;8.18;;;4.60;;
60086;SDS011;45960;53.630;55.972;2023-04-25T03:10:38;9.70;;;4.32;;
60086;SDS011;45960;53.630;55.972;2023-04-25T03:11:42;13.57;;;4.97;;
60086;SDS011;45960;53.630;55.972;2023-04-25T03:12:44;13.48;;;4.63;;
60086;SDS011;45960;53.630;55.972;2023-04-25T03:13:45;13.63;;;4.97;;
60086;SDS011;45960;53.630;55.972;2023-04-25T03:14:46;12.95;;;5.15;;
60086;SDS011;45960;53.630;55.972;2023-04-25T03:15:48;12.90;;;5.32;;
60086;SDS011;45960;53.630;55.972;2023-04-25T03:16:48;10.38;;;4.95;;
60086;SDS011;45960;53.630;55.972;2023-04-25T03:17:51;16.50;;;4.85;;
60086;SDS011;45960;53.630;55.972;2023-04-25T03:18:52;13.32;;;4.93;;
60086;SDS011;45960;53.630;55.972;2023-04-25T03:19:54;10.23;;;4.85;;
60086;SDS011;45960;53.630;55.972;2023-04-25T03:20:55;17.48;;;5.85;;
60086;SDS011;45960;53.630;55.972;2023-04-25T03:21:56;13.32;;;5.28;;
60086;SDS011;45960;53.630;55.972;2023-04-25T03:22:57;12.25;;;5.15;;
60086;SDS011;45960;53.630;55.972;2023-04-25T03:23:59;14.43;;;5.03;;
60086;SDS011;45960;53.630;55.972;2023-04-25T03:25:03;13.68;;;4.45;;
60086;SDS011;45960;53.630;55.972;2023-04-25T03:26:05;14.43;;;4.85;;
60086;SDS011;45960;53.630;55.972;2023-04-25T03:27:06;15.93;;;5.15;;
60086;SDS011;45960;53.630;55.972;2023-04-25T03:28:07;19.10;;;5.10;;
60086;SDS011;45960;53.630;55.972;2023-04-25T03:29:08;13.65;;;5.07;;
60086;SDS011;45960;53.630;55.972;2023-04-25T03:30:10;26.20;;;6.80;;
60086;SDS011;45960;53.630;55.972;2023-04-25T03:31:12;13.35;;;5.15;;
60086;SDS011;45960;53.630;55.972;2023-04-25T03:32:14;17.77;;;6.20;;
60086;SDS011;45960;53.630;55.972;2023-04-25T03:33:15;14.95;;;5.30;;
60086;SDS011;45960;53.630;55.972;2023-04-25T03:34:16;13.27;;;5.30;;
60086;SDS011;45960;53.630;55.972;2023-04-25T03:35:17;17.73;;;5.78;;
60086;SDS011;45960;53.630;55.972;2023-04-25T03:36:18;10.93;;;5.65;;
60086;SDS011;45960;53.630;55.972;2023-04-25T03:37:19;11.75;;;5.00;;
60086;SDS011;45960;53.630;55.972;2023-04-25T03:38:20;18.52;;;5.93;;
60086;SDS011;45960;53.630;55.972;2023-04-25T03:39:21;15.50;;;4.57;;
60086;SDS011;45960;53.630;55.972;2023-04-25T03:40:25;17.88;;;5.22;;
60086;SDS011;45960;53.630;55.972;2023-04-25T03:41:52;14.57;;;5.18;;
60086;SDS011;45960;53.630;55.972;2023-04-25T03:42:54;9.68;;;3.95;;
60086;SDS011;45960;53.630;55.972;2023-04-25T03:43:55;14.70;;;4.63;;
60086;SDS011;45960;53.630;55.972;2023-04-25T03:44:56;13.93;;;5.03;;
60086;SDS011;45960;53.630;55.972;2023-04-25T03:45:58;12.48;;;4.43;;
60086;SDS011;45960;53.630;55.972;2023-04-25T03:47:04;8.60;;;4.40;;
60086;SDS011;45960;53.630;55.972;2023-04-25T03:48:05;26.38;;;5.00;;
60086;SDS011;45960;53.630;55.972;2023-04-25T03:49:07;15.40;;;5.20;;
60086;SDS011;45960;53.630;55.972;2023-04-25T03:50:28;10.82;;;4.10;;
60086;SDS011;45960;53.630;55.972;2023-04-25T03:51:29;14.63;;;5.78;;
60086;SDS011;45960;53.630;55.972;2023-04-25T03:52:31;17.92;;;5.15;;
60086;SDS011;45960;53.630;55.972;2023-04-25T03:53:32;10.35;;;5.10;;
60086;SDS011;45960;53.630;55.972;2023-04-25T03:54:51;21.02;;;5.70;;
60086;SDS011;45960;53.630;55.972;2023-04-25T03:55:55;21.33;;;4.97;;
60086;SDS011;45960;53.630;55.972;2023-04-25T03:56:56;18.13;;;5.60;;
60086;SDS011;45960;53.630;55.972;2023-04-25T03:58:00;18.98;;;5.30;;
60086;SDS011;45960;53.630;55.972;2023-04-25T03:59:02;12.70;;;5.07;;
60086;SDS011;45960;53.630;55.972;2023-04-25T04:00:04;15.32;;;5.28;;
60086;SDS011;45960;53.630;55.972;2023-04-25T04:01:13;14.88;;;5.25;;
60086;SDS011;45960;53.630;55.972;2023-04-25T04:02:15;14.02;;;5.47;;
60086;SDS011;45960;53.630;55.972;2023-04-25T04:03:16;12.27;;;6.00;;
60086;SDS011;45960;53.630;55.972;2023-04-25T04:04:17;11.23;;;5.30;;
60086;SDS011;45960;53.630;55.972;2023-04-25T04:05:18;13.68;;;4.80;;
60086;SDS011;45960;53.630;55.972;2023-04-25T04:06:26;15.27;;;5.55;;
60086;SDS011;45960;53.630;55.972;2023-04-25T04:07:33;20.85;;;5.57;;
60086;SDS011;45960;53.630;55.972;2023-04-25T04:08:40;10.05;;;4.75;;
60086;SDS011;45960;53.630;55.972;2023-04-25T04:09:43;18.05;;;5.78;;
60086;SDS011;45960;53.630;55.972;2023-04-25T04:10:49;20.40;;;5.07;;
60086;SDS011;45960;53.630;55.972;2023-04-25T04:11:50;13.75;;;5.45;;
60086;SDS011;45960;53.630;55.972;2023-04-25T04:12:51;21.33;;;5.82;;
60086;SDS011;45960;53.630;55.972;2023-04-25T04:13:52;21.80;;;5.20;;
60086;SDS011;45960;53.630;55.972;2023-04-25T04:14:54;23.67;;;6.00;;
60086;SDS011;45960;53.630;55.972;2023-04-25T04:15:55;18.88;;;5.20;;
60086;SDS011;45960;53.630;55.972;2023-04-25T04:16:57;17.17;;;4.65;;
60086;SDS011;45960;53.630;55.972;2023-04-25T04:17:58;14.07;;;4.40;;
60086;SDS011;45960;53.630;55.972;2023-04-25T04:19:03;20.45;;;4.85;;
60086;SDS011;45960;53.630;55.972;2023-04-25T04:20:05;16.52;;;5.05;;
60086;SDS011;45960;53.630;55.972;2023-04-25T04:21:07;10.75;;;3.80;;
60086;SDS011;45960;53.630;55.972;2023-04-25T04:22:10;11.82;;;4.05;;
60086;SDS011;45960;53.630;55.972;2023-04-25T04:23:13;10.15;;;4.30;;
60086;SDS011;45960;53.630;55.972;2023-04-25T04:24:14;9.50;;;4.00;;
60086;SDS011;45960;53.630;55.972;2023-04-25T04:25:38;13.45;;;4.13;;
60086;SDS011;45960;53.630;55.972;2023-04-25T04:27:03;10.02;;;3.92;;
60086;SDS011;45960;53.630;55.972;2023-04-25T04:28:10;10.90;;;4.18;;
60086;SDS011;45960;53.630;55.972;2023-04-25T04:29:24;9.30;;;3.40;;
60086;SDS011;45960;53.630;55.972;2023-04-25T04:30:35;7.53;;;3.83;;
60086;SDS011;45960;53.630;55.972;2023-04-25T04:31:41;6.15;;;3.38;;
60086;SDS011;45960;53.630;55.972;2023-04-25T04:32:42;10.18;;;3.60;;
60086;SDS011;45960;53.630;55.972;2023-04-25T04:33:43;11.88;;;4.10;;
60086;SDS011;45960;53.630;55.972;2023-04-25T04:34:45;10.90;;;3.53;;
60086;SDS011;45960;53.630;55.972;2023-04-25T04:35:50;6.93;;;3.13;;
60086;SDS011;45960;53.630;55.972;2023-04-25T04:36:53;10.30;;;3.25;;
60086;SDS011;45960;53.630;55.972;2023-04-25T04:37:54;8.45;;;3.20;;
60086;SDS011;45960;53.630;55.972;2023-04-25T04:38:56;9.63;;;3.13;;
60086;SDS011;45960;53.630;55.972;2023-04-25T04:40:22;12.52;;;3.90;;
60086;SDS011;45960;53.630;55.972;2023-04-25T04:41:35;12.68;;;3.50;;
60086;SDS011;45960;53.630;55.972;2023-04-25T04:42:43;14.70;;;3.20;;
60086;SDS011;45960;53.630;55.972;2023-04-25T04:44:00;17.33;;;3.30;;
60086;SDS011;45960;53.630;55.972;2023-04-25T04:45:23;10.20;;;2.65;;
60086;SDS011;45960;53.630;55.972;2023-04-25T04:47:02;9.75;;;2.50;;
60086;SDS011;45960;53.630;55.972;2023-04-25T04:48:26;5.97;;;2.50;;
60086;SDS011;45960;53.630;55.972;2023-04-25T04:49:28;8.55;;;2.42;;
60086;SDS011;45960;53.630;55.972;2023-04-25T04:50:49;12.60;;;2.63;;
60086;SDS011;45960;53.630;55.972;2023-04-25T04:52:13;11.15;;;2.58;;
60086;SDS011;45960;53.630;55.972;2023-04-25T04:53:34;8.48;;;2.53;;
60086;SDS011;45960;53.630;55.972;2023-04-25T04:54:55;4.50;;;2.00;;
60086;SDS011;45960;53.630;55.972;2023-04-25T04:56:20;5.57;;;2.20;;
60086;SDS011;45960;53.630;55.972;2023-04-25T04:57:42;8.25;;;2.42;;
60086;SDS011;45960;53.630;55.972;2023-04-25T04:59:09;4.28;;;1.95;;
60086;SDS011;45960;53.630;55.972;2023-04-25T05:00:29;8.93;;;2.30;;
60086;SDS011;45960;53.630;55.972;2023-04-25T05:02:05;3.17;;;1.83;;
60086;SDS011;45960;53.630;55.972;2023-04-25T05:03:29;9.18;;;2.50;;
60086;SDS011;45960;53.630;55.972;2023-04-25T05:04:49;9.05;;;2.22;;
60086;SDS011;45960;53.630;55.972;2023-04-25T05:06:11;7.78;;;2.55;;
60086;SDS011;45960;53.630;55.972;2023-04-25T05:07:35;9.43;;;2.30;;
60086;SDS011;45960;53.630;55.972;2023-04-25T05:08:41;9.27;;;2.20;;
60086;SDS011;45960;53.630;55.972;2023-04-25T05:09:59;9.73;;;2.15;;
60086;SDS011;45960;53.630;55.972;2023-04-25T05:11:19;5.07;;;1.77;;
60086;SDS011;45960;53.630;55.972;2023-04-25T05:12:36;5.65;;;2.10;;
60086;SDS011;45960;53.630;55.972;2023-04-25T05:13:55;11.27;;;2.10;;
60086;SDS011;45960;53.630;55.972;2023-04-25T05:15:16;3.03;;;1.73;;
60086;SDS011;45960;53.630;55.972;2023-04-25T05:16:36;10.65;;;2.00;;
60086;SDS011;45960;53.630;55.972;2023-04-25T05:17:55;6.95;;;2.35;;
60086;SDS011;45960;53.630;55.972;2023-04-25T05:19:25;7.50;;;2.50;;
60086;SDS011;45960;53.630;55.972;2023-04-25T05:20:49;8.70;;;2.10;;
60086;SDS011;45960;53.630;55.972;2023-04-25T05:22:20;4.30;;;1.67;;
60086;SDS011;45960;53.630;55.972;2023-04-25T05:23:33;6.00;;;1.83;;
60086;SDS011;45960;53.630;55.972;2023-04-25T05:24:56;7.13;;;1.98;;
60086;SDS011;45960;53.630;55.972;2023-04-25T05:26:09;4.63;;;1.95;;
60086;SDS011;45960;53.630;55.972;2023-04-25T05:27:39;3.92;;;1.30;;
60086;SDS011;45960;53.630;55.972;2023-04-25T05:29:01;6.70;;;1.70;;
60086;SDS011;45960;53.630;55.972;2023-04-25T05:30:25;6.82;;;2.25;;
60086;SDS011;45960;53.630;55.972;2023-04-25T05:31:46;7.82;;;2.33;;
60086;SDS011;45960;53.630;55.972;2023-04-25T05:32:50;5.28;;;1.92;;
60086;SDS011;45960;53.630;55.972;2023-04-25T05:33:51;4.65;;;1.88;;
60086;SDS011;45960;53.630;55.972;2023-04-25T05:34:53;8.55;;;2.47;;
60086;SDS011;45960;53.630;55.972;2023-04-25T05:35:59;6.13;;;1.83;;
60086;SDS011;45960;53.630;55.972;2023-04-25T05:37:01;6.28;;;2.30;;
60086;SDS011;45960;53.630;55.972;2023-04-25T05:38:03;12.77;;;2.15;;
60086;SDS011;45960;53.630;55.972;2023-04-25T05:39:27;7.43;;;1.75;;
60086;SDS011;45960;53.630;55.972;2023-04-25T05:40:46;8.73;;;1.83;;
60086;SDS011;45960;53.630;55.972;2023-04-25T05:42:07;6.38;;;2.05;;
60086;SDS011;45960;53.630;55.972;2023-04-25T05:43:37;8.13;;;2.05;;
60086;SDS011;45960;53.630;55.972;2023-04-25T05:44:57;6.82;;;1.65;;
60086;SDS011;45960;53.630;55.972;2023-04-25T05:46:31;6.45;;;1.70;;
60086;SDS011;45960;53.630;55.972;2023-04-25T05:47:50;4.00;;;1.80;;
60086;SDS011;45960;53.630;55.972;2023-04-25T05:49:01;4.78;;;1.45;;
60086;SDS011;45960;53.630;55.972;2023-04-25T05:50:17;7.15;;;1.52;;
60086;SDS011;45960;53.630;55.972;2023-04-25T05:51:25;5.95;;;1.63;;
60086;SDS011;45960;53.630;55.972;2023-04-25T05:53:00;6.60;;;1.60;;
60086;SDS011;45960;53.630;55.972;2023-04-25T05:54:04;8.50;;;1.65;;
60086;SDS011;45960;53.630;55.972;2023-04-25T05:55:07;8.50;;;1.90;;
60086;SDS011;45960;53.630;55.972;2023-04-25T05:56:09;6.13;;;2.00;;
60086;SDS011;45960;53.630;55.972;2023-04-25T05:57:20;7.47;;;2.22;;
60086;SDS011;45960;53.630;55.972;2023-04-25T05:58:28;11.40;;;1.73;;
60086;SDS011;45960;53.630;55.972;2023-04-25T05:59:30;5.80;;;1.88;;
60086;SDS011;45960;53.630;55.972;2023-04-25T06:00:31;7.28;;;1.63;;
60086;SDS011;45960;53.630;55.972;2023-04-25T06:01:32;5.63;;;1.30;;
60086;SDS011;45960;53.630;55.972;2023-04-25T06:02:34;4.05;;;1.20;;
60086;SDS011;45960;53.630;55.972;2023-04-25T06:03:35;5.38;;;1.15;;
60086;SDS011;45960;53.630;55.972;2023-04-25T06:04:39;1.73;;;1.25;;
60086;SDS011;45960;53.630;55.972;2023-04-25T06:05:43;6.13;;;1.77;;
60086;SDS011;45960;53.630;55.972;2023-04-25T06:06:44;6.45;;;1.70;;
60086;SDS011;45960;53.630;55.972;2023-04-25T06:07:45;6.40;;;1.45;;
60086;SDS011;45960;53.630;55.972;2023-04-25T06:08:46;11.52;;;1.40;;
60086;SDS011;45960;53.630;55.972;2023-04-25T06:09:47;3.40;;;0.90;;
60086;SDS011;45960;53.630;55.972;2023-04-25T06:10:49;3.83;;;1.55;;
60086;SDS011;45960;53.630;55.972;2023-04-25T06:11:51;5.00;;;1.20;;
60086;SDS011;45960;53.630;55.972;2023-04-25T06:12:52;4.80;;;1.30;;
60086;SDS011;45960;53.630;55.972;2023-04-25T06:13:54;12.57;;;1.92;;
60086;SDS011;45960;53.630;55.972;2023-04-25T06:14:55;4.55;;;1.52;;
60086;SDS011;45960;53.630;55.972;2023-04-25T06:15:56;6.40;;;1.50;;
60086;SDS011;45960;53.630;55.972;2023-04-25T06:16:57;30.60;;;2.42;;
60086;SDS011;45960;53.630;55.972;2023-04-25T06:18:00;6.93;;;1.42;;
60086;SDS011;45960;53.630;55.972;2023-04-25T06:19:01;3.58;;;1.40;;
60086;SDS011;45960;53.630;55.972;2023-04-25T06:20:02;7.45;;;2.45;;
60086;SDS011;45960;53.630;55.972;2023-04-25T06:21:04;5.38;;;1.17;;
60086;SDS011;45960;53.630;55.972;2023-04-25T06:22:07;4.85;;;1.17;;
60086;SDS011;45960;53.630;55.972;2023-04-25T06:23:09;4.38;;;1.25;;